Time;durP1;ratioP1;P1;durP2;ratioP2;P2;SDS_P1;SDS_P2;PMS_P1;PMS_P2;Temp;Humidity;BMP_temperature;BMP_pressure;BME280_temperature;BME280_humidity;BME280_pressure;Samples;Min_cycle;Max_cycle;Signal;HPM_P1;HPM_P2
2023/12/05 00:00:29;;;;;;;13.77;12.37;;;;;;;;;;5284211;28;20464;-82
2023/12/05 00:03:00;;;;;;;13.03;11.73;;;;;;;;;;5284465;28;20356;-82
2023/12/05 00:05:31;;;;;;;13.87;12.50;;;;;;;;;;5287569;28;20025;-82
2023/12/05 00:08:02;;;;;;;12.87;11.57;;;;;;;;;;5290237;28;20035;-84
2023/12/05 00:10:34;;;;;;;13.85;12.45;;;;;;;;;;5283669;28;20028;-82
2023/12/05 00:13:07;;;;;;;13.37;12.07;;;;;;;;;;5284468;28;20367;-81
2023/12/05 00:15:38;;;;;;;13.27;11.88;;;;;;;;;;5284045;28;20017;-82
2023/12/05 00:18:09;;;;;;;13.03;11.73;;;;;;;;;;5282868;28;20067;-82
2023/12/05 00:20:40;;;;;;;14.43;12.90;;;;;;;;;;5283948;28;20387;-82
2023/12/05 00:23:11;;;;;;;14.10;12.63;;;;;;;;;;5283796;28;20027;-83
2023/12/05 00:25:43;;;;;;;14.67;13.20;;;;;;;;;;5282862;28;20036;-81
2023/12/05 00:28:14;;;;;;;13.53;12.13;;;;;;;;;;5283728;28;20052;-83
2023/12/05 00:30:45;;;;;;;14.48;13.02;;;;;;;;;;5283714;28;20032;-82
2023/12/05 00:33:16;;;;;;;14.47;12.97;;;;;;;;;;5283991;28;20020;-82
2023/12/05 00:35:48;;;;;;;14.37;12.97;;;;;;;;;;5283629;28;20017;-82
2023/12/05 00:38:19;;;;;;;15.10;13.52;;;;;;;;;;5282739;28;20025;-81
2023/12/05 00:40:50;;;;;;;14.55;13.05;;;;;;;;;;5283106;28;20024;-81
2023/12/05 00:43:21;;;;;;;14.73;13.07;;;;;;;;;;5282858;28;20100;-80
2023/12/05 00:45:52;;;;;;;13.77;12.38;;;;;;;;;;5282555;28;20017;-81
2023/12/05 00:48:24;;;;;;;13.20;11.80;;;;;;;;;;5282954;28;20482;-80
2023/12/05 00:50:55;;;;;;;15.15;13.65;;;;;;;;;;5283693;28;20028;-81
2023/12/05 00:53:26;;;;;;;13.63;12.23;;;;;;;;;;5281405;28;20056;-81
2023/12/05 00:55:57;;;;;;;16.70;15.00;;;;;;;;;;5284139;28;20089;-82
2023/12/05 00:58:28;;;;;;;15.93;14.23;;;;;;;;;;5283141;28;20036;-81
2023/12/05 01:00:59;;;;;;;14.70;13.10;;;;;;;;;;5282219;28;20077;-82
2023/12/05 01:03:31;;;;;;;14.13;12.73;;;;;;;;;;5282837;28;20031;-81
2023/12/05 01:06:02;;;;;;;12.88;11.55;;;;;;;;;;5282667;28;20021;-81
2023/12/05 01:08:33;;;;;;;13.13;11.82;;;;;;;;;;5281973;28;20048;-81
2023/12/05 01:11:04;;;;;;;13.23;11.93;;;;;;;;;;5282500;28;20052;-82
2023/12/05 01:13:35;;;;;;;13.87;12.47;;;;;;;;;;5281905;28;20108;-82
2023/12/05 01:16:07;;;;;;;14.43;12.93;;;;;;;;;;5282563;28;20025;-82
2023/12/05 01:18:38;;;;;;;14.63;13.07;;;;;;;;;;5282488;28;20017;-81
2023/12/05 01:21:09;;;;;;;14.13;12.73;;;;;;;;;;5281814;28;20028;-82
2023/12/05 01:23:41;;;;;;;15.40;13.80;;;;;;;;;;5282627;28;20103;-82
2023/12/05 01:26:12;;;;;;;15.52;13.95;;;;;;;;;;5282698;28;20023;-82
2023/12/05 01:28:43;;;;;;;15.18;13.68;;;;;;;;;;5282593;28;20048;-82
2023/12/05 01:31:14;;;;;;;13.95;12.55;;;;;;;;;;5282385;28;20115;-82
2023/12/05 01:33:47;;;;;;;17.20;15.40;;;;;;;;;;5282618;28;20055;-82
2023/12/05 01:36:18;;;;;;;16.37;14.67;;;;;;;;;;5282113;28;20367;-82
2023/12/05 01:38:49;;;;;;;15.33;13.73;;;;;;;;;;5282245;28;20065;-82
2023/12/05 01:41:20;;;;;;;14.60;12.27;;;;;;;;;;5280792;28;20016;-82
2023/12/05 01:43:52;;;;;;;13.35;12.05;;;;;;;;;;5282494;28;20020;-82
2023/12/05 01:46:24;;;;;;;14.18;12.75;;;;;;;;;;5282170;28;20488;-83
2023/12/05 01:48:55;;;;;;;15.53;14.00;;;;;;;;;;5282055;28;20036;-84
2023/12/05 01:51:27;;;;;;;14.75;13.25;;;;;;;;;;5282347;28;20103;-83
2023/12/05 01:53:58;;;;;;;17.27;15.07;;;;;;;;;;5283441;28;20043;-83
2023/12/05 01:56:30;;;;;;;16.08;14.48;;;;;;;;;;5282290;28;20426;-81
2023/12/05 01:59:02;;;;;;;16.07;14.37;;;;;;;;;;5282218;28;20036;-82
2023/12/05 02:01:34;;;;;;;16.02;14.13;;;;;;;;;;5282258;28;20422;-82
2023/12/05 02:04:06;;;;;;;18.20;15.93;;;;;;;;;;5281112;28;20021;-81
2023/12/05 02:06:37;;;;;;;15.63;14.02;;;;;;;;;;5281733;28;20055;-82
2023/12/05 02:09:10;;;;;;;17.00;15.27;;;;;;;;;;5281719;28;20068;-81
2023/12/05 02:11:43;;;;;;;17.30;15.48;;;;;;;;;;5281131;28;20040;-81
2023/12/05 02:14:14;;;;;;;16.65;14.95;;;;;;;;;;5281603;28;20025;-82
2023/12/05 02:16:51;;;;;;;17.03;15.23;;;;;;;;;;5281037;28;20549;-82
2023/12/05 02:19:42;;;;;;;18.37;16.57;;;;;;;;;;5282050;28;20456;-82
2023/12/05 02:22:33;;;;;;;17.67;15.80;;;;;;;;;;5283467;28;20024;-83
2023/12/05 02:25:23;;;;;;;17.27;15.40;;;;;;;;;;5260074;28;20033;-82
2023/12/05 02:27:54;;;;;;;15.67;14.10;;;;;;;;;;5282876;28;20406;-82
2023/12/05 02:30:26;;;;;;;15.63;14.03;;;;;;;;;;5282801;28;20066;-82
2023/12/05 02:32:57;;;;;;;18.15;16.27;;;;;;;;;;5282643;28;20016;-82
2023/12/05 02:35:28;;;;;;;17.20;15.38;;;;;;;;;;5281881;28;20035;-82
2023/12/05 02:38:05;;;;;;;16.33;14.65;;;;;;;;;;5281791;28;20013;-82
2023/12/05 02:40:52;;;;;;;19.70;17.33;;;;;;;;;;5282097;28;20165;-82
2023/12/05 02:43:27;;;;;;;19.00;17.10;;;;;;;;;;5281238;28;20021;-81
2023/12/05 02:46:00;;;;;;;16.90;15.25;;;;;;;;;;5280458;28;20100;-80
2023/12/05 02:48:32;;;;;;;16.27;14.50;;;;;;;;;;5281089;28;20020;-81
2023/12/05 02:51:04;;;;;;;17.50;15.80;;;;;;;;;;5281357;28;20390;-81
2023/12/05 02:53:35;;;;;;;16.65;14.98;;;;;;;;;;5282621;28;20094;-81
2023/12/05 02:56:06;;;;;;;18.17;16.30;;;;;;;;;;5285025;28;20050;-81
2023/12/05 02:58:37;;;;;;;17.60;15.80;;;;;;;;;;5285039;28;20531;-80
2023/12/05 03:01:09;;;;;;;18.98;17.00;;;;;;;;;;5284550;28;20459;-80
2023/12/05 03:03:40;;;;;;;20.60;18.42;;;;;;;;;;5285244;28;20408;-80
2023/12/05 03:06:11;;;;;;;18.80;16.88;;;;;;;;;;5284129;28;20052;-80
2023/12/05 03:08:42;;;;;;;19.08;17.08;;;;;;;;;;5284909;28;20020;-80
2023/12/05 03:11:13;;;;;;;18.85;16.95;;;;;;;;;;5285431;28;20036;-81
2023/12/05 03:13:45;;;;;;;19.10;17.15;;;;;;;;;;5284236;28;20016;-80
2023/12/05 03:16:16;;;;;;;17.88;16.08;;;;;;;;;;5284632;28;20025;-81
2023/12/05 03:18:47;;;;;;;18.17;16.27;;;;;;;;;;5284878;28;20043;-82
2023/12/05 03:21:19;;;;;;;21.30;19.00;;;;;;;;;;5283959;28;20070;-81
2023/12/05 03:23:50;;;;;;;20.08;18.08;;;;;;;;;;5285027;28;20014;-81
2023/12/05 03:26:22;;;;;;;20.17;17.90;;;;;;;;;;5284351;28;20013;-81
2023/12/05 03:28:53;;;;;;;17.83;16.00;;;;;;;;;;5284128;28;20460;-80
2023/12/05 03:31:24;;;;;;;18.42;16.63;;;;;;;;;;5284247;28;20050;-80
2023/12/05 03:33:56;;;;;;;20.40;18.20;;;;;;;;;;5283914;28;20008;-81
2023/12/05 03:36:27;;;;;;;19.83;17.83;;;;;;;;;;5284191;28;20372;-80
2023/12/05 03:38:58;;;;;;;19.77;17.75;;;;;;;;;;5284462;28;20407;-80
2023/12/05 03:41:29;;;;;;;19.02;17.08;;;;;;;;;;5283630;28;20025;-81
2023/12/05 03:44:00;;;;;;;20.17;18.08;;;;;;;;;;5284506;28;20009;-80
2023/12/05 03:46:32;;;;;;;18.58;16.73;;;;;;;;;;5284191;28;20036;-80
2023/12/05 03:49:03;;;;;;;20.35;18.13;;;;;;;;;;5283701;28;20052;-80
2023/12/05 03:51:34;;;;;;;19.35;17.38;;;;;;;;;;5284003;28;20041;-80
2023/12/05 03:54:06;;;;;;;20.13;18.08;;;;;;;;;;5283875;28;20036;-80
2023/12/05 03:56:37;;;;;;;21.90;19.55;;;;;;;;;;5283630;28;20100;-80
2023/12/05 03:59:08;;;;;;;21.27;19.08;;;;;;;;;;5283916;28;20035;-79
2023/12/05 04:01:40;;;;;;;20.88;18.80;;;;;;;;;;5284277;28;20064;-79
2023/12/05 04:04:11;;;;;;;19.38;17.40;;;;;;;;;;5282868;28;20025;-79
2023/12/05 04:06:42;;;;;;;20.08;18.00;;;;;;;;;;5283928;28;20028;-80
2023/12/05 04:09:13;;;;;;;20.67;18.48;;;;;;;;;;5283030;28;20027;-79
2023/12/05 04:11:44;;;;;;;21.20;19.00;;;;;;;;;;5283441;28;20024;-79
2023/12/05 04:14:15;;;;;;;20.17;18.05;;;;;;;;;;5283556;28;20074;-79
2023/12/05 04:16:47;;;;;;;21.00;18.80;;;;;;;;;;5282817;28;20023;-80
2023/12/05 04:19:18;;;;;;;20.92;18.83;;;;;;;;;;5283672;28;20404;-79
2023/12/05 04:21:49;;;;;;;20.20;18.20;;;;;;;;;;5283452;28;20021;-79
2023/12/05 04:24:20;;;;;;;21.42;19.23;;;;;;;;;;5282510;28;20028;-79
2023/12/05 04:26:51;;;;;;;23.42;21.00;;;;;;;;;;5283658;28;20028;-79
2023/12/05 04:29:22;;;;;;;23.00;20.65;;;;;;;;;;5283090;28;20090;-79
2023/12/05 04:31:54;;;;;;;22.50;20.13;;;;;;;;;;5282787;28;20037;-79
2023/12/05 04:34:25;;;;;;;21.58;19.27;;;;;;;;;;5282881;28;20021;-79
2023/12/05 04:36:56;;;;;;;20.77;18.60;;;;;;;;;;5283716;28;20043;-79
2023/12/05 04:39:27;;;;;;;21.70;19.52;;;;;;;;;;5282441;28;20016;-80
2023/12/05 04:41:58;;;;;;;21.48;19.27;;;;;;;;;;5283148;28;20012;-79
2023/12/05 04:44:29;;;;;;;22.04;19.84;;;;;;;;;;5282331;28;20028;-79
2023/12/05 04:47:03;;;;;;;20.95;18.83;;;;;;;;;;5282939;28;20018;-79
2023/12/05 04:49:34;;;;;;;22.02;19.75;;;;;;;;;;5282759;28;20020;-79
2023/12/05 04:52:05;;;;;;;21.85;19.55;;;;;;;;;;5282178;28;20051;-79
2023/12/05 04:54:37;;;;;;;20.90;18.73;;;;;;;;;;5282511;28;20052;-79
2023/12/05 04:57:08;;;;;;;20.58;18.48;;;;;;;;;;5282654;28;20476;-79
2023/12/05 04:59:39;;;;;;;21.15;19.00;;;;;;;;;;5281749;28;20361;-79
2023/12/05 05:02:13;;;;;;;21.05;18.95;;;;;;;;;;5282992;28;20372;-79
2023/12/05 05:04:45;;;;;;;19.50;17.58;;;;;;;;;;5282647;28;20021;-79
2023/12/05 05:07:16;;;;;;;20.33;18.23;;;;;;;;;;5281875;28;20237;-79
2023/12/05 05:09:47;;;;;;;21.17;19.08;;;;;;;;;;5282376;28;20092;-79
2023/12/05 05:12:18;;;;;;;20.58;18.45;;;;;;;;;;5282378;28;20060;-80
2023/12/05 05:14:50;;;;;;;20.67;18.48;;;;;;;;;;5282141;28;20023;-79
2023/12/05 05:17:21;;;;;;;19.60;17.60;;;;;;;;;;5281347;28;20082;-78
2023/12/05 05:19:52;;;;;;;19.35;17.35;;;;;;;;;;5281879;28;20430;-79
2023/12/05 05:22:23;;;;;;;20.98;18.77;;;;;;;;;;5281927;28;20032;-78
2023/12/05 05:24:54;;;;;;;20.70;18.60;;;;;;;;;;5282724;28;20022;-78
2023/12/05 05:27:26;;;;;;;19.77;17.77;;;;;;;;;;5281218;28;20391;-79
2023/12/05 05:29:57;;;;;;;19.92;17.92;;;;;;;;;;5282063;28;20020;-78
2023/12/05 05:32:28;;;;;;;20.05;17.98;;;;;;;;;;5282154;28;20104;-79
2023/12/05 05:34:59;;;;;;;20.42;18.33;;;;;;;;;;5281282;28;20027;-79
2023/12/05 05:37:31;;;;;;;20.23;18.13;;;;;;;;;;5282263;28;20025;-78
2023/12/05 05:40:02;;;;;;;20.88;18.75;;;;;;;;;;5282132;28;20074;-78
2023/12/05 05:42:33;;;;;;;20.77;18.67;;;;;;;;;;5281189;28;20099;-78
2023/12/05 05:45:05;;;;;;;20.60;18.40;;;;;;;;;;5281856;28;20028;-78
2023/12/05 05:47:36;;;;;;;19.95;17.85;;;;;;;;;;5281319;28;20095;-78
2023/12/05 05:50:08;;;;;;;19.40;17.40;;;;;;;;;;5282101;28;20029;-78
2023/12/05 05:52:41;;;;;;;21.15;18.95;;;;;;;;;;5281954;28;20020;-75
2023/12/05 05:55:12;;;;;;;18.92;17.02;;;;;;;;;;5281477;28;20544;-78
2023/12/05 05:57:43;;;;;;;20.05;18.00;;;;;;;;;;5281715;28;20111;-77
2023/12/05 06:00:15;;;;;;;20.80;18.70;;;;;;;;;;5281960;28;20024;-77
2023/12/05 06:02:46;;;;;;;21.65;19.40;;;;;;;;;;5280893;28;20017;-77
2023/12/05 06:05:17;;;;;;;22.65;20.23;;;;;;;;;;5281674;28;20115;-77
2023/12/05 06:07:48;;;;;;;20.85;18.60;;;;;;;;;;5281772;28;20368;-78
2023/12/05 06:10:20;;;;;;;21.00;18.80;;;;;;;;;;5280777;28;20039;-78
2023/12/05 06:12:51;;;;;;;21.77;19.48;;;;;;;;;;5281981;28;20020;-78
2023/12/05 06:15:22;;;;;;;22.63;20.17;;;;;;;;;;5281616;28;20021;-78
2023/12/05 06:17:55;;;;;;;23.25;20.75;;;;;;;;;;5281482;28;20101;-77
2023/12/05 06:20:26;;;;;;;23.08;20.67;;;;;;;;;;5281504;28;20074;-78
2023/12/05 06:22:58;;;;;;;22.40;20.10;;;;;;;;;;5280715;28;20021;-78
2023/12/05 06:25:29;;;;;;;20.92;18.77;;;;;;;;;;5281418;28;20063;-78
2023/12/05 06:28:00;;;;;;;21.45;19.15;;;;;;;;;;5283083;28;20410;-78
2023/12/05 06:30:31;;;;;;;20.45;18.35;;;;;;;;;;5284844;28;20032;-78
2023/12/05 06:33:02;;;;;;;20.95;18.48;;;;;;;;;;5285600;28;20021;-78
2023/12/05 06:35:34;;;;;;;19.88;17.77;;;;;;;;;;5285545;28;20408;-78
2023/12/05 06:38:05;;;;;;;20.05;17.95;;;;;;;;;;5284696;28;20024;-78
2023/12/05 06:40:36;;;;;;;21.25;18.92;;;;;;;;;;5285534;28;20539;-78
2023/12/05 06:43:07;;;;;;;21.05;18.73;;;;;;;;;;5285540;28;20087;-78
2023/12/05 06:45:39;;;;;;;20.73;18.52;;;;;;;;;;5284524;28;20099;-78
2023/12/05 06:48:10;;;;;;;20.05;17.95;;;;;;;;;;5285211;28;20028;-77
2023/12/05 06:50:45;;;;;;;20.77;18.52;;;;;;;;;;5285357;28;20437;-78
2023/12/05 06:53:16;;;;;;;20.42;18.30;;;;;;;;;;5284360;28;20053;-78
2023/12/05 06:55:48;;;;;;;19.60;17.50;;;;;;;;;;5285151;28;20024;-78
2023/12/05 06:58:21;;;;;;;21.17;18.83;;;;;;;;;;5284268;28;20494;-78
2023/12/05 07:00:53;;;;;;;20.92;18.48;;;;;;;;;;5285393;28;20020;-78
2023/12/05 07:03:25;;;;;;;21.17;18.98;;;;;;;;;;5284721;28;20482;-78
2023/12/05 07:05:57;;;;;;;23.17;20.13;;;;;;;;;;5284246;28;20379;-77
2023/12/05 07:08:28;;;;;;;20.75;18.27;;;;;;;;;;5284612;28;20027;-77
2023/12/05 07:10:59;;;;;;;21.38;19.08;;;;;;;;;;5284507;28;20025;-76
2023/12/05 07:13:31;;;;;;;20.80;18.38;;;;;;;;;;5283980;28;20030;-77
2023/12/05 07:16:02;;;;;;;19.77;17.73;;;;;;;;;;5284714;28;20017;-77
2023/12/05 07:18:33;;;;;;;20.75;18.50;;;;;;;;;;5284490;28;20028;-77
2023/12/05 07:21:05;;;;;;;20.02;17.92;;;;;;;;;;5283971;28;20471;-77
2023/12/05 07:23:36;;;;;;;22.13;19.38;;;;;;;;;;5284772;28;20017;-77
2023/12/05 07:26:07;;;;;;;22.88;20.48;;;;;;;;;;5283070;28;20016;-77
2023/12/05 07:28:39;;;;;;;22.02;19.73;;;;;;;;;;5284435;28;20021;-77
2023/12/05 07:31:10;;;;;;;23.13;20.52;;;;;;;;;;5284370;28;20028;-81
2023/12/05 07:33:41;;;;;;;23.65;19.60;;;;;;;;;;5283612;28;20085;-78
2023/12/05 07:36:13;;;;;;;20.40;18.17;;;;;;;;;;5284679;28;20059;-78
2023/12/05 07:38:44;;;;;;;21.98;18.75;;;;;;;;;;5284177;28;20028;-78
2023/12/05 07:41:24;;;;;;;21.95;18.23;;;;;;;;;;5281082;28;20028;-78
2023/12/05 07:43:56;;;;;;;21.92;19.45;;;;;;;;;;5282294;28;20261;-79
2023/12/05 07:46:28;;;;;;;20.33;18.00;;;;;;;;;;5282368;28;20112;-78
2023/12/05 07:49:01;;;;;;;21.15;17.73;;;;;;;;;;5281879;28;20013;-79
2023/12/05 07:51:33;;;;;;;22.02;18.73;;;;;;;;;;5282425;28;20032;-79
2023/12/05 07:54:05;;;;;;;22.13;19.35;;;;;;;;;;5282206;28;20403;-80
2023/12/05 07:56:36;;;;;;;23.55;19.50;;;;;;;;;;5283562;28;20082;-79
2023/12/05 07:59:07;;;;;;;23.30;19.95;;;;;;;;;;5284228;28;20008;-79
2023/12/05 08:01:42;;;;;;;20.88;18.67;;;;;;;;;;5283547;28;20078;-80
2023/12/05 08:04:13;;;;;;;20.75;18.35;;;;;;;;;;5288627;28;20047;-79
2023/12/05 08:06:44;;;;;;;23.73;18.77;;;;;;;;;;5290516;28;20025;-80
2023/12/05 08:09:16;;;;;;;24.27;19.42;;;;;;;;;;5283335;28;20023;-83
2023/12/05 08:11:47;;;;;;;24.30;19.15;;;;;;;;;;5283437;28;20103;-81
2023/12/05 08:14:18;;;;;;;23.82;19.20;;;;;;;;;;5284143;28;20021;-81
2023/12/05 08:16:49;;;;;;;23.70;19.13;;;;;;;;;;5283228;28;20124;-81
2023/12/05 08:19:20;;;;;;;25.65;21.55;;;;;;;;;;5283562;28;20062;-81
2023/12/05 08:21:51;;;;;;;24.15;20.52;;;;;;;;;;5283978;28;20387;-81
2023/12/05 08:24:23;;;;;;;25.63;20.77;;;;;;;;;;5282748;28;20021;-81
2023/12/05 08:26:54;;;;;;;21.38;18.80;;;;;;;;;;5283951;28;20024;-83
2023/12/05 08:29:25;;;;;;;24.42;19.17;;;;;;;;;;5282321;28;20021;-81
2023/12/05 08:31:56;;;;;;;22.70;18.55;;;;;;;;;;5284904;28;20060;-83
2023/12/05 08:34:27;;;;;;;23.17;18.63;;;;;;;;;;5282642;28;20105;-81
2023/12/05 08:36:59;;;;;;;24.13;18.30;;;;;;;;;;5280876;28;20033;-81
2023/12/05 08:39:30;;;;;;;26.48;19.75;;;;;;;;;;5282322;28;20051;-83
2023/12/05 08:42:02;;;;;;;26.90;20.43;;;;;;;;;;5281814;28;20021;-82
2023/12/05 08:44:33;;;;;;;25.52;19.42;;;;;;;;;;5281262;28;20017;-81
2023/12/05 08:47:05;;;;;;;24.27;18.15;;;;;;;;;;5281696;28;20530;-82
2023/12/05 08:49:36;;;;;;;27.05;21.05;;;;;;;;;;5282238;28;20363;-81
2023/12/05 08:52:07;;;;;;;26.65;20.88;;;;;;;;;;5280912;28;20085;-83
2023/12/05 08:54:38;;;;;;;25.00;20.08;;;;;;;;;;5280580;28;20048;-81
2023/12/05 08:57:10;;;;;;;28.27;20.38;;;;;;;;;;5280427;28;20024;-82
2023/12/05 08:59:41;;;;;;;26.75;20.63;;;;;;;;;;5279919;28;20494;-81
2023/12/05 09:02:12;;;;;;;26.73;20.55;;;;;;;;;;5280767;28;20403;-80
2023/12/05 09:04:43;;;;;;;28.42;20.27;;;;;;;;;;5279844;28;20281;-81
2023/12/05 09:07:15;;;;;;;24.33;19.35;;;;;;;;;;5280846;28;20103;-81
2023/12/05 09:09:46;;;;;;;26.02;19.92;;;;;;;;;;5282185;28;20027;-81
2023/12/05 09:12:17;;;;;;;24.50;18.80;;;;;;;;;;5280979;28;20459;-81
2023/12/05 09:14:48;;;;;;;25.10;18.02;;;;;;;;;;5282363;28;20476;-81
2023/12/05 09:17:20;;;;;;;23.02;18.08;;;;;;;;;;5282484;28;20028;-81
2023/12/05 09:19:51;;;;;;;27.80;19.00;;;;;;;;;;5281607;28;20078;-79
2023/12/05 09:22:23;;;;;;;24.30;18.70;;;;;;;;;;5281852;28;20024;-82
2023/12/05 09:24:54;;;;;;;24.88;19.10;;;;;;;;;;5284028;28;20024;-76
2023/12/05 09:27:25;;;;;;;24.67;18.85;;;;;;;;;;5281173;28;20091;-75
2023/12/05 09:29:56;;;;;;;24.75;19.35;;;;;;;;;;5282001;28;20024;-81
2023/12/05 09:32:27;;;;;;;27.10;19.77;;;;;;;;;;5281896;28;20031;-79
2023/12/05 09:34:59;;;;;;;24.67;18.90;;;;;;;;;;5281292;28;20017;-79
2023/12/05 09:37:30;;;;;;;24.33;17.90;;;;;;;;;;5281561;28;20031;-79
2023/12/05 09:40:02;;;;;;;25.55;18.73;;;;;;;;;;5281011;28;20051;-79
2023/12/05 09:42:34;;;;;;;22.63;18.85;;;;;;;;;;5281942;28;20032;-79
2023/12/05 09:45:06;;;;;;;26.48;18.20;;;;;;;;;;5281752;28;20024;-80
2023/12/05 09:47:38;;;;;;;23.98;18.73;;;;;;;;;;5281103;28;20100;-80
2023/12/05 09:50:09;;;;;;;24.92;18.13;;;;;;;;;;5282106;28;20179;-79
2023/12/05 09:52:41;;;;;;;26.63;20.00;;;;;;;;;;5285173;28;20067;-79
2023/12/05 09:55:12;;;;;;;24.75;18.13;;;;;;;;;;5283708;28;20479;-80
2023/12/05 09:57:43;;;;;;;23.98;18.08;;;;;;;;;;5282387;28;20099;-79
2023/12/05 10:00:15;;;;;;;23.10;17.17;;;;;;;;;;5281826;28;20467;-79
2023/12/05 10:02:47;;;;;;;25.23;18.40;;;;;;;;;;5280594;28;20025;-79
2023/12/05 10:05:19;;;;;;;25.77;18.45;;;;;;;;;;5281795;28;20021;-79
2023/12/05 10:07:52;;;;;;;22.02;16.40;;;;;;;;;;5280881;28;20456;-80
2023/12/05 10:10:24;;;;;;;21.88;17.38;;;;;;;;;;5281586;28;20020;-80
2023/12/05 10:12:55;;;;;;;27.25;18.90;;;;;;;;;;5282131;28;20053;-79
2023/12/05 10:15:27;;;;;;;25.45;18.17;;;;;;;;;;5280743;28;20024;-79
2023/12/05 10:17:58;;;;;;;24.00;17.45;;;;;;;;;;5281591;28;20033;-81
2023/12/05 10:20:30;;;;;;;24.42;17.50;;;;;;;;;;5281444;28;20086;-79
2023/12/05 10:23:01;;;;;;;24.95;17.67;;;;;;;;;;5280746;28;20422;-79
2023/12/05 10:25:32;;;;;;;22.98;17.10;;;;;;;;;;5281114;28;20101;-79
2023/12/05 10:28:05;;;;;;;23.60;16.60;;;;;;;;;;5281649;28;20439;-79
2023/12/05 10:30:39;;;;;;;25.30;17.67;;;;;;;;;;5280589;28;20501;-79
2023/12/05 10:33:17;;;;;;;22.20;16.90;;;;;;;;;;5281072;28;20024;-77
2023/12/05 10:35:48;;;;;;;25.67;17.23;;;;;;;;;;5281395;28;20073;-74
2023/12/05 10:38:20;;;;;;;24.13;17.23;;;;;;;;;;5280566;28;20410;-78
2023/12/05 10:40:52;;;;;;;22.88;17.00;;;;;;;;;;5281460;28;20029;-79
2023/12/05 10:43:24;;;;;;;23.73;17.38;;;;;;;;;;5280094;28;20016;-77
2023/12/05 10:45:55;;;;;;;24.10;17.23;;;;;;;;;;5281730;28;20028;-77
2023/12/05 10:48:26;;;;;;;22.17;15.90;;;;;;;;;;5281294;28;20016;-78
2023/12/05 10:50:58;;;;;;;21.00;15.80;;;;;;;;;;5280702;28;20104;-78
2023/12/05 10:53:32;;;;;;;18.80;15.18;;;;;;;;;;5280904;28;20093;-79
2023/12/05 10:56:14;;;;;;;19.23;15.13;;;;;;;;;;5281498;28;20486;-78
2023/12/05 10:58:47;;;;;;;18.77;14.48;;;;;;;;;;5280482;28;20020;-79
2023/12/05 11:01:18;;;;;;;18.73;14.10;;;;;;;;;;5281323;28;20059;-79
2023/12/05 11:03:50;;;;;;;17.13;14.02;;;;;;;;;;5281172;28;20059;-80
2023/12/05 11:06:21;;;;;;;15.52;12.55;;;;;;;;;;5280164;28;20394;-78
2023/12/05 11:08:52;;;;;;;14.45;12.13;;;;;;;;;;5281465;28;20040;-77
2023/12/05 11:11:24;;;;;;;13.95;11.15;;;;;;;;;;5280214;28;20094;-76
2023/12/05 11:13:56;;;;;;;13.75;11.60;;;;;;;;;;5281535;28;20024;-78
2023/12/05 11:16:29;;;;;;;14.40;11.18;;;;;;;;;;5284589;28;20031;-78
2023/12/05 11:19:21;;;;;;;11.63;9.50;;;;;;;;;;5284195;28;20048;-77
2023/12/05 11:21:58;;;;;;;10.52;8.77;;;;;;;;;;5263528;28;20025;-79
2023/12/05 11:24:48;;;;;;;12.40;9.40;;;;;;;;;;5284686;28;20060;-77
2023/12/05 11:27:29;;;;;;;9.65;8.65;;;;;;;;;;5286937;28;20029;-77
2023/12/05 11:30:09;;;;;;;8.40;7.50;;;;;;;;;;5285618;28;20100;-79
2023/12/05 11:32:52;;;;;;;9.55;8.02;;;;;;;;;;5284014;28;20108;-78
2023/12/05 11:35:42;;;;;;;9.50;8.07;;;;;;;;;;5284359;28;20024;-78
2023/12/05 11:38:15;;;;;;;9.40;7.65;;;;;;;;;;5288752;28;20036;-78
2023/12/05 11:41:05;;;;;;;10.32;8.80;;;;;;;;;;5285453;28;20031;-79
2023/12/05 11:43:36;;;;;;;9.73;8.45;;;;;;;;;;5284523;28;20428;-78
2023/12/05 11:46:08;;;;;;;10.27;9.10;;;;;;;;;;5284545;28;20105;-78
2023/12/05 11:48:39;;;;;;;9.95;8.63;;;;;;;;;;5283660;28;20028;-77
2023/12/05 11:51:12;;;;;;;10.02;8.63;;;;;;;;;;5284221;28;20024;-79
2023/12/05 11:53:43;;;;;;;8.27;7.47;;;;;;;;;;5283309;28;20041;-77
2023/12/05 11:56:18;;;;;;;10.63;9.10;;;;;;;;;;5283903;28;20019;-80
2023/12/05 11:58:50;;;;;;;9.77;8.32;;;;;;;;;;5283658;28;20031;-79
2023/12/05 12:01:21;;;;;;;11.50;9.70;;;;;;;;;;5283211;28;20445;-80
2023/12/05 12:03:53;;;;;;;14.90;10.18;;;;;;;;;;5284005;28;20017;-79
2023/12/05 12:06:24;;;;;;;10.10;8.90;;;;;;;;;;5283512;28;20074;-77
2023/12/05 12:08:58;;;;;;;10.48;8.95;;;;;;;;;;5283116;28;20029;-78
2023/12/05 12:11:29;;;;;;;12.02;9.32;;;;;;;;;;5283688;28;20099;-77
2023/12/05 12:14:10;;;;;;;15.60;11.68;;;;;;;;;;5283503;28;20032;-80
2023/12/05 12:16:42;;;;;;;15.38;11.52;;;;;;;;;;5283018;28;20038;-80
2023/12/05 12:19:15;;;;;;;16.45;12.65;;;;;;;;;;5283560;28;20017;-78
2023/12/05 12:21:46;;;;;;;19.92;13.70;;;;;;;;;;5282932;28;20029;-77
2023/12/05 12:24:22;;;;;;;18.20;12.52;;;;;;;;;;5283551;28;20074;-79
2023/12/05 12:26:54;;;;;;;20.20;14.98;;;;;;;;;;5283257;28;20071;-76
2023/12/05 12:29:25;;;;;;;18.67;13.30;;;;;;;;;;5281879;28;20040;-77
2023/12/05 12:32:04;;;;;;;17.92;13.82;;;;;;;;;;5283658;28;20021;-74
2023/12/05 12:34:36;;;;;;;19.33;14.15;;;;;;;;;;5282988;28;20027;-73
2023/12/05 12:37:10;;;;;;;19.98;13.90;;;;;;;;;;5282902;28;20021;-79
2023/12/05 12:39:43;;;;;;;18.50;13.85;;;;;;;;;;5282818;28;20444;-80
2023/12/05 12:42:16;;;;;;;24.27;15.10;;;;;;;;;;5282046;28;20023;-80
2023/12/05 12:44:47;;;;;;;21.27;14.30;;;;;;;;;;5282361;28;20016;-81
2023/12/05 12:47:18;;;;;;;18.13;12.82;;;;;;;;;;5283175;28;20020;-80
2023/12/05 12:49:50;;;;;;;19.20;13.23;;;;;;;;;;5282153;28;20055;-79
2023/12/05 12:52:22;;;;;;;14.60;11.95;;;;;;;;;;5282518;28;20356;-79
2023/12/05 12:54:53;;;;;;;14.95;10.93;;;;;;;;;;5282953;28;20058;-79
2023/12/05 12:57:24;;;;;;;14.77;10.27;;;;;;;;;;5281566;28;20024;-80
2023/12/05 12:59:56;;;;;;;14.27;10.40;;;;;;;;;;5283143;28;20369;-79
2023/12/05 13:02:30;;;;;;;15.88;10.90;;;;;;;;;;5282795;28;20021;-80
2023/12/05 13:05:01;;;;;;;17.65;11.20;;;;;;;;;;5281882;28;20383;-80
2023/12/05 13:07:33;;;;;;;16.17;10.98;;;;;;;;;;5282451;28;20025;-80
2023/12/05 13:10:05;;;;;;;17.48;11.05;;;;;;;;;;5282427;28;20024;-80
2023/12/05 13:12:37;;;;;;;21.63;14.43;;;;;;;;;;5281586;28;20024;-81
2023/12/05 13:15:09;;;;;;;22.52;14.95;;;;;;;;;;5282028;28;20070;-80
2023/12/05 13:17:54;;;;;;;22.60;14.85;;;;;;;;;;5281467;28;20025;-81
2023/12/05 13:20:26;;;;;;;21.85;15.27;;;;;;;;;;5282303;28;20048;-80
2023/12/05 13:22:58;;;;;;;22.42;16.05;;;;;;;;;;5284012;28;20024;-80
2023/12/05 13:25:29;;;;;;;23.88;15.63;;;;;;;;;;5282081;28;20468;-79
2023/12/05 13:28:00;;;;;;;24.45;17.27;;;;;;;;;;5282466;28;20028;-78
2023/12/05 13:30:31;;;;;;;23.23;16.33;;;;;;;;;;5282200;28;20028;-79
2023/12/05 13:33:03;;;;;;;25.67;18.35;;;;;;;;;;5281349;28;20023;-79
2023/12/05 13:35:34;;;;;;;23.58;17.92;;;;;;;;;;5281968;28;20332;-80
2023/12/05 13:38:07;;;;;;;24.80;17.20;;;;;;;;;;5280659;28;20025;-79
2023/12/05 13:40:38;;;;;;;25.40;17.98;;;;;;;;;;5281393;28;20013;-79
2023/12/05 13:43:09;;;;;;;25.90;17.73;;;;;;;;;;5281782;28;20069;-80
2023/12/05 13:45:41;;;;;;;22.20;17.05;;;;;;;;;;5282329;28;20383;-80
2023/12/05 13:48:12;;;;;;;24.95;18.15;;;;;;;;;;5280891;28;20020;-79
2023/12/05 13:50:43;;;;;;;23.08;17.02;;;;;;;;;;5282142;28;20077;-78
2023/12/05 13:53:14;;;;;;;23.40;18.38;;;;;;;;;;5281808;28;20510;-78
2023/12/05 13:55:46;;;;;;;25.40;17.98;;;;;;;;;;5281693;28;20025;-78
2023/12/05 13:58:17;;;;;;;21.60;17.27;;;;;;;;;;5281874;28;20432;-81
2023/12/05 14:00:48;;;;;;;23.27;17.83;;;;;;;;;;5281152;28;20021;-79
2023/12/05 14:03:19;;;;;;;21.30;16.05;;;;;;;;;;5281753;28;20477;-81
2023/12/05 14:05:50;;;;;;;21.00;15.93;;;;;;;;;;5281331;28;20028;-79
2023/12/05 14:08:21;;;;;;;22.35;16.75;;;;;;;;;;5280601;28;20479;-81
2023/12/05 14:10:53;;;;;;;19.95;15.68;;;;;;;;;;5282375;28;20028;-81
2023/12/05 14:13:24;;;;;;;20.25;14.70;;;;;;;;;;5280991;28;20021;-80
2023/12/05 14:15:55;;;;;;;21.10;16.40;;;;;;;;;;5281093;28;20483;-80
2023/12/05 14:18:26;;;;;;;21.90;17.17;;;;;;;;;;5281399;28;20029;-79
2023/12/05 14:20:57;;;;;;;22.27;16.85;;;;;;;;;;5280463;28;20036;-83
2023/12/05 14:23:29;;;;;;;20.27;15.52;;;;;;;;;;5281098;28;20074;-81
2023/12/05 14:26:00;;;;;;;23.35;16.17;;;;;;;;;;5281301;28;20021;-81
2023/12/05 14:28:31;;;;;;;22.17;15.85;;;;;;;;;;5280972;28;20096;-81
2023/12/05 14:31:02;;;;;;;24.23;16.55;;;;;;;;;;5281278;28;20079;-81
2023/12/05 14:33:33;;;;;;;23.30;16.88;;;;;;;;;;5281304;28;20576;-78
2023/12/05 14:36:05;;;;;;;22.20;17.95;;;;;;;;;;5278050;28;20390;-81
2023/12/05 14:38:36;;;;;;;19.08;15.10;;;;;;;;;;5269379;28;20094;-79
2023/12/05 14:41:08;;;;;;;22.10;16.70;;;;;;;;;;5262037;28;20448;-80
2023/12/05 14:43:39;;;;;;;21.92;17.05;;;;;;;;;;5259803;28;20013;-80
2023/12/05 14:46:10;;;;;;;24.48;17.20;;;;;;;;;;5263708;28;20123;-80